sensor_id;sensor_type;location;lat;lon;timestamp;P1;durP1;ratioP1;P2;durP2;ratioP2
12059;SDS011;6091;51.432;6.880;2024-02-21T00:00:24;1.60;;;1.40;;
12059;SDS011;6091;51.432;6.880;2024-02-21T00:02:51;1.15;;;1.13;;
12059;SDS011;6091;51.432;6.880;2024-02-21T00:05:19;1.50;;;1.40;;
12059;SDS011;6091;51.432;6.880;2024-02-21T00:07:46;1.23;;;1.10;;
12059;SDS011;6091;51.432;6.880;2024-02-21T00:10:14;1.27;;;1.13;;
12059;SDS011;6091;51.432;6.880;2024-02-21T00:12:41;1.35;;;1.10;;
12059;SDS011;6091;51.432;6.880;2024-02-21T00:15:08;1.20;;;1.10;;
12059;SDS011;6091;51.432;6.880;2024-02-21T00:17:36;2.13;;;1.35;;
12059;SDS011;6091;51.432;6.880;2024-02-21T00:20:04;1.83;;;1.30;;
12059;SDS011;6091;51.432;6.880;2024-02-21T00:22:32;1.65;;;1.40;;
12059;SDS011;6091;51.432;6.880;2024-02-21T00:25:00;1.23;;;1.02;;
12059;SDS011;6091;51.432;6.880;2024-02-21T00:27:27;1.33;;;1.23;;
12059;SDS011;6091;51.432;6.880;2024-02-21T00:29:55;1.10;;;1.00;;
12059;SDS011;6091;51.432;6.880;2024-02-21T00:32:22;1.50;;;1.30;;
12059;SDS011;6091;51.432;6.880;2024-02-21T00:34:49;1.55;;;1.27;;
12059;SDS011;6091;51.432;6.880;2024-02-21T00:37:16;1.08;;;0.98;;
12059;SDS011;6091;51.432;6.880;2024-02-21T00:39:44;1.48;;;1.38;;
12059;SDS011;6091;51.432;6.880;2024-02-21T00:42:11;1.58;;;1.35;;
12059;SDS011;6091;51.432;6.880;2024-02-21T00:44:38;1.52;;;1.35;;
12059;SDS011;6091;51.432;6.880;2024-02-21T00:47:05;0.82;;;0.82;;
12059;SDS011;6091;51.432;6.880;2024-02-21T00:49:32;1.83;;;1.13;;
12059;SDS011;6091;51.432;6.880;2024-02-21T00:52:00;1.73;;;1.30;;
12059;SDS011;6091;51.432;6.880;2024-02-21T00:54:28;1.20;;;1.00;;
12059;SDS011;6091;51.432;6.880;2024-02-21T00:57:13;1.27;;;1.17;;
12059;SDS011;6091;51.432;6.880;2024-02-21T00:59:40;1.30;;;1.20;;
12059;SDS011;6091;51.432;6.880;2024-02-21T01:02:08;1.70;;;1.27;;
12059;SDS011;6091;51.432;6.880;2024-02-21T01:04:35;1.05;;;0.98;;
12059;SDS011;6091;51.432;6.880;2024-02-21T01:07:04;0.90;;;0.90;;
12059;SDS011;6091;51.432;6.880;2024-02-21T01:09:31;1.50;;;1.38;;
12059;SDS011;6091;51.432;6.880;2024-02-21T01:11:58;1.20;;;1.10;;
12059;SDS011;6091;51.432;6.880;2024-02-21T01:14:25;1.50;;;1.30;;
12059;SDS011;6091;51.432;6.880;2024-02-21T01:16:53;1.30;;;1.20;;
12059;SDS011;6091;51.432;6.880;2024-02-21T01:19:20;2.05;;;1.40;;
12059;SDS011;6091;51.432;6.880;2024-02-21T01:21:47;1.08;;;1.00;;
12059;SDS011;6091;51.432;6.880;2024-02-21T01:24:15;1.30;;;1.10;;
12059;SDS011;6091;51.432;6.880;2024-02-21T01:26:42;1.30;;;1.20;;
12059;SDS011;6091;51.432;6.880;2024-02-21T01:29:09;1.13;;;0.98;;
12059;SDS011;6091;51.432;6.880;2024-02-21T01:31:36;1.20;;;1.10;;
12059;SDS011;6091;51.432;6.880;2024-02-21T01:34:03;1.13;;;1.00;;
12059;SDS011;6091;51.432;6.880;2024-02-21T01:36:30;0.93;;;0.88;;
12059;SDS011;6091;51.432;6.880;2024-02-21T01:38:57;1.00;;;0.85;;
12059;SDS011;6091;51.432;6.880;2024-02-21T01:41:24;1.38;;;1.25;;
12059;SDS011;6091;51.432;6.880;2024-02-21T01:43:52;1.10;;;1.00;;
12059;SDS011;6091;51.432;6.880;2024-02-21T01:46:19;1.33;;;1.10;;
12059;SDS011;6091;51.432;6.880;2024-02-21T01:48:48;1.10;;;1.00;;
12059;SDS011;6091;51.432;6.880;2024-02-21T01:51:16;1.10;;;1.00;;
12059;SDS011;6091;51.432;6.880;2024-02-21T01:53:43;1.05;;;0.93;;
12059;SDS011;6091;51.432;6.880;2024-02-21T01:56:12;1.65;;;1.08;;
12059;SDS011;6091;51.432;6.880;2024-02-21T01:58:40;1.15;;;1.05;;
12059;SDS011;6091;51.432;6.880;2024-02-21T02:01:10;1.30;;;1.20;;
12059;SDS011;6091;51.432;6.880;2024-02-21T02:03:37;1.00;;;0.95;;
12059;SDS011;6091;51.432;6.880;2024-02-21T02:06:05;1.42;;;1.00;;
12059;SDS011;6091;51.432;6.880;2024-02-21T02:08:36;1.92;;;1.20;;
12059;SDS011;6091;51.432;6.880;2024-02-21T02:11:03;1.38;;;1.08;;
12059;SDS011;6091;51.432;6.880;2024-02-21T02:13:31;1.20;;;1.10;;
12059;SDS011;6091;51.432;6.880;2024-02-21T02:15:59;0.82;;;0.80;;
12059;SDS011;6091;51.432;6.880;2024-02-21T02:18:26;1.20;;;1.10;;
12059;SDS011;6091;51.432;6.880;2024-02-21T02:20:53;1.13;;;1.00;;
12059;SDS011;6091;51.432;6.880;2024-02-21T02:23:30;1.45;;;1.10;;
12059;SDS011;6091;51.432;6.880;2024-02-21T02:25:58;1.08;;;1.00;;
12059;SDS011;6091;51.432;6.880;2024-02-21T02:28:27;0.98;;;0.93;;
12059;SDS011;6091;51.432;6.880;2024-02-21T02:30:56;1.30;;;1.20;;
12059;SDS011;6091;51.432;6.880;2024-02-21T02:33:23;1.50;;;1.02;;
12059;SDS011;6091;51.432;6.880;2024-02-21T02:35:51;1.52;;;1.13;;
12059;SDS011;6091;51.432;6.880;2024-02-21T02:38:18;1.17;;;1.08;;
12059;SDS011;6091;51.432;6.880;2024-02-21T02:40:45;1.17;;;0.90;;
12059;SDS011;6091;51.432;6.880;2024-02-21T02:43:12;0.95;;;0.88;;
12059;SDS011;6091;51.432;6.880;2024-02-21T02:45:40;1.48;;;1.13;;
12059;SDS011;6091;51.432;6.880;2024-02-21T02:48:07;0.80;;;0.80;;
12059;SDS011;6091;51.432;6.880;2024-02-21T02:50:34;0.95;;;0.90;;
12059;SDS011;6091;51.432;6.880;2024-02-21T02:53:03;1.75;;;1.38;;
12059;SDS011;6091;51.432;6.880;2024-02-21T02:55:30;1.13;;;1.02;;
12059;SDS011;6091;51.432;6.880;2024-02-21T02:57:57;1.20;;;1.10;;
12059;SDS011;6091;51.432;6.880;2024-02-21T03:00:24;1.05;;;0.90;;
12059;SDS011;6091;51.432;6.880;2024-02-21T03:02:52;1.30;;;1.00;;
12059;SDS011;6091;51.432;6.880;2024-02-21T03:05:20;1.20;;;1.10;;
12059;SDS011;6091;51.432;6.880;2024-02-21T03:07:48;1.13;;;1.00;;
12059;SDS011;6091;51.432;6.880;2024-02-21T03:10:16;1.13;;;0.90;;
12059;SDS011;6091;51.432;6.880;2024-02-21T03:12:45;1.10;;;1.08;;
12059;SDS011;6091;51.432;6.880;2024-02-21T03:15:12;1.10;;;1.00;;
12059;SDS011;6091;51.432;6.880;2024-02-21T03:17:41;1.23;;;1.17;;
12059;SDS011;6091;51.432;6.880;2024-02-21T03:20:10;1.27;;;1.10;;
12059;SDS011;6091;51.432;6.880;2024-02-21T03:22:39;1.02;;;1.00;;
12059;SDS011;6091;51.432;6.880;2024-02-21T03:25:08;1.40;;;1.00;;
12059;SDS011;6091;51.432;6.880;2024-02-21T03:27:37;1.15;;;0.90;;
12059;SDS011;6091;51.432;6.880;2024-02-21T03:30:05;1.13;;;0.90;;
12059;SDS011;6091;51.432;6.880;2024-02-21T03:32:33;1.25;;;0.93;;
12059;SDS011;6091;51.432;6.880;2024-02-21T03:35:01;1.10;;;1.00;;
12059;SDS011;6091;51.432;6.880;2024-02-21T03:37:29;1.05;;;0.95;;
12059;SDS011;6091;51.432;6.880;2024-02-21T03:39:56;1.85;;;1.27;;
12059;SDS011;6091;51.432;6.880;2024-02-21T03:42:23;0.82;;;0.82;;
12059;SDS011;6091;51.432;6.880;2024-02-21T03:44:51;1.20;;;0.90;;
12059;SDS011;6091;51.432;6.880;2024-02-21T03:47:18;1.00;;;1.00;;
12059;SDS011;6091;51.432;6.880;2024-02-21T03:49:46;0.90;;;0.90;;
12059;SDS011;6091;51.432;6.880;2024-02-21T03:52:13;1.38;;;1.00;;
12059;SDS011;6091;51.432;6.880;2024-02-21T03:54:40;0.85;;;0.85;;
12059;SDS011;6091;51.432;6.880;2024-02-21T03:57:07;1.05;;;0.98;;
12059;SDS011;6091;51.432;6.880;2024-02-21T03:59:35;1.70;;;1.10;;
12059;SDS011;6091;51.432;6.880;2024-02-21T04:02:04;1.48;;;0.90;;
12059;SDS011;6091;51.432;6.880;2024-02-21T04:04:35;0.90;;;0.90;;
12059;SDS011;6091;51.432;6.880;2024-02-21T04:07:04;0.90;;;0.90;;
12059;SDS011;6091;51.432;6.880;2024-02-21T04:09:35;0.85;;;0.85;;
12059;SDS011;6091;51.432;6.880;2024-02-21T04:12:02;0.82;;;0.80;;
12059;SDS011;6091;51.432;6.880;2024-02-21T04:14:29;0.90;;;0.88;;
12059;SDS011;6091;51.432;6.880;2024-02-21T04:16:59;1.20;;;1.00;;
12059;SDS011;6091;51.432;6.880;2024-02-21T04:19:27;0.93;;;0.93;;
12059;SDS011;6091;51.432;6.880;2024-02-21T04:21:55;1.10;;;1.00;;
12059;SDS011;6091;51.432;6.880;2024-02-21T04:24:22;0.90;;;0.90;;
12059;SDS011;6091;51.432;6.880;2024-02-21T04:26:49;1.30;;;1.08;;
12059;SDS011;6091;51.432;6.880;2024-02-21T04:29:17;0.70;;;0.70;;
12059;SDS011;6091;51.432;6.880;2024-02-21T04:31:45;1.08;;;0.95;;
12059;SDS011;6091;51.432;6.880;2024-02-21T04:34:12;1.20;;;1.10;;
12059;SDS011;6091;51.432;6.880;2024-02-21T04:36:39;1.13;;;0.75;;
12059;SDS011;6091;51.432;6.880;2024-02-21T04:39:06;1.40;;;1.15;;
12059;SDS011;6091;51.432;6.880;2024-02-21T04:41:33;1.10;;;1.00;;
12059;SDS011;6091;51.432;6.880;2024-02-21T04:44:01;0.98;;;0.88;;
12059;SDS011;6091;51.432;6.880;2024-02-21T04:46:30;0.80;;;0.80;;
12059;SDS011;6091;51.432;6.880;2024-02-21T04:48:57;0.93;;;0.88;;
12059;SDS011;6091;51.432;6.880;2024-02-21T04:51:24;0.70;;;0.70;;
12059;SDS011;6091;51.432;6.880;2024-02-21T04:53:52;1.13;;;1.02;;
12059;SDS011;6091;51.432;6.880;2024-02-21T04:56:19;0.90;;;0.90;;
12059;SDS011;6091;51.432;6.880;2024-02-21T04:58:46;1.10;;;1.00;;
12059;SDS011;6091;51.432;6.880;2024-02-21T05:01:13;0.82;;;0.77;;
12059;SDS011;6091;51.432;6.880;2024-02-21T05:03:40;0.95;;;0.90;;
12059;SDS011;6091;51.432;6.880;2024-02-21T05:06:07;0.98;;;0.90;;
12059;SDS011;6091;51.432;6.880;2024-02-21T05:08:35;1.50;;;0.88;;
12059;SDS011;6091;51.432;6.880;2024-02-21T05:11:03;1.02;;;0.88;;
12059;SDS011;6091;51.432;6.880;2024-02-21T05:13:30;1.63;;;1.05;;
12059;SDS011;6091;51.432;6.880;2024-02-21T05:15:59;1.10;;;0.90;;
12059;SDS011;6091;51.432;6.880;2024-02-21T05:18:28;0.80;;;0.80;;
12059;SDS011;6091;51.432;6.880;2024-02-21T05:20:55;0.90;;;0.90;;
12059;SDS011;6091;51.432;6.880;2024-02-21T05:23:22;0.95;;;0.73;;
12059;SDS011;6091;51.432;6.880;2024-02-21T05:25:49;1.10;;;1.00;;
12059;SDS011;6091;51.432;6.880;2024-02-21T05:28:17;0.75;;;0.75;;
12059;SDS011;6091;51.432;6.880;2024-02-21T05:30:44;0.77;;;0.77;;
12059;SDS011;6091;51.432;6.880;2024-02-21T05:33:11;0.80;;;0.80;;
12059;SDS011;6091;51.432;6.880;2024-02-21T05:35:39;0.80;;;0.80;;
12059;SDS011;6091;51.432;6.880;2024-02-21T05:38:07;0.80;;;0.80;;
12059;SDS011;6091;51.432;6.880;2024-02-21T05:40:38;0.90;;;0.90;;
12059;SDS011;6091;51.432;6.880;2024-02-21T05:43:06;1.20;;;0.82;;
12059;SDS011;6091;51.432;6.880;2024-02-21T05:45:34;0.80;;;0.80;;
12059;SDS011;6091;51.432;6.880;2024-02-21T05:48:01;0.80;;;0.80;;
12059;SDS011;6091;51.432;6.880;2024-02-21T05:50:30;1.00;;;0.80;;
12059;SDS011;6091;51.432;6.880;2024-02-21T05:52:59;0.80;;;0.80;;
12059;SDS011;6091;51.432;6.880;2024-02-21T05:55:27;0.80;;;0.60;;
12059;SDS011;6091;51.432;6.880;2024-02-21T05:57:54;0.80;;;0.80;;
12059;SDS011;6091;51.432;6.880;2024-02-21T06:00:22;0.90;;;0.90;;
12059;SDS011;6091;51.432;6.880;2024-02-21T06:02:49;0.90;;;0.90;;
12059;SDS011;6091;51.432;6.880;2024-02-21T06:05:16;1.00;;;0.80;;
12059;SDS011;6091;51.432;6.880;2024-02-21T06:07:44;1.08;;;0.98;;
12059;SDS011;6091;51.432;6.880;2024-02-21T06:10:12;0.90;;;0.82;;
12059;SDS011;6091;51.432;6.880;2024-02-21T06:12:40;0.90;;;0.80;;
12059;SDS011;6091;51.432;6.880;2024-02-21T06:15:08;0.93;;;0.82;;
12059;SDS011;6091;51.432;6.880;2024-02-21T06:17:35;0.73;;;0.73;;
12059;SDS011;6091;51.432;6.880;2024-02-21T06:20:02;0.80;;;0.80;;
12059;SDS011;6091;51.432;6.880;2024-02-21T06:22:31;1.13;;;0.90;;
12059;SDS011;6091;51.432;6.880;2024-02-21T06:24:58;0.80;;;0.80;;
12059;SDS011;6091;51.432;6.880;2024-02-21T06:27:27;1.10;;;0.90;;
12059;SDS011;6091;51.432;6.880;2024-02-21T06:29:54;0.80;;;0.80;;
12059;SDS011;6091;51.432;6.880;2024-02-21T06:32:21;0.80;;;0.80;;
12059;SDS011;6091;51.432;6.880;2024-02-21T06:34:48;0.80;;;0.80;;
12059;SDS011;6091;51.432;6.880;2024-02-21T06:37:17;0.60;;;0.60;;
12059;SDS011;6091;51.432;6.880;2024-02-21T06:39:45;0.90;;;0.82;;
12059;SDS011;6091;51.432;6.880;2024-02-21T06:42:12;1.00;;;0.70;;
12059;SDS011;6091;51.432;6.880;2024-02-21T06:44:40;0.70;;;0.70;;
12059;SDS011;6091;51.432;6.880;2024-02-21T06:47:07;0.95;;;0.95;;
12059;SDS011;6091;51.432;6.880;2024-02-21T06:49:37;0.90;;;0.90;;
12059;SDS011;6091;51.432;6.880;2024-02-21T06:52:05;1.20;;;0.90;;
12059;SDS011;6091;51.432;6.880;2024-02-21T06:54:32;0.80;;;0.80;;
12059;SDS011;6091;51.432;6.880;2024-02-21T06:56:59;0.98;;;0.88;;
12059;SDS011;6091;51.432;6.880;2024-02-21T06:59:27;0.95;;;0.80;;
12059;SDS011;6091;51.432;6.880;2024-02-21T07:01:54;1.27;;;0.95;;
12059;SDS011;6091;51.432;6.880;2024-02-21T07:04:24;1.38;;;0.85;;
12059;SDS011;6091;51.432;6.880;2024-02-21T07:06:51;2.05;;;0.90;;
12059;SDS011;6091;51.432;6.880;2024-02-21T07:09:18;0.90;;;0.85;;
12059;SDS011;6091;51.432;6.880;2024-02-21T07:11:45;1.30;;;1.20;;
12059;SDS011;6091;51.432;6.880;2024-02-21T07:14:16;1.27;;;1.10;;
12059;SDS011;6091;51.432;6.880;2024-02-21T07:16:44;1.58;;;0.90;;
12059;SDS011;6091;51.432;6.880;2024-02-21T07:19:11;2.05;;;1.00;;
12059;SDS011;6091;51.432;6.880;2024-02-21T07:21:40;1.77;;;0.70;;
12059;SDS011;6091;51.432;6.880;2024-02-21T07:24:10;1.63;;;0.88;;
12059;SDS011;6091;51.432;6.880;2024-02-21T07:26:41;1.33;;;1.00;;
12059;SDS011;6091;51.432;6.880;2024-02-21T07:29:12;0.73;;;0.70;;
12059;SDS011;6091;51.432;6.880;2024-02-21T07:31:42;0.90;;;0.80;;
12059;SDS011;6091;51.432;6.880;2024-02-21T07:34:10;1.88;;;1.23;;
12059;SDS011;6091;51.432;6.880;2024-02-21T07:36:37;2.28;;;0.95;;
12059;SDS011;6091;51.432;6.880;2024-02-21T07:39:06;1.20;;;0.80;;
12059;SDS011;6091;51.432;6.880;2024-02-21T07:41:33;1.80;;;0.85;;
12059;SDS011;6091;51.432;6.880;2024-02-21T07:44:02;1.58;;;1.15;;
12059;SDS011;6091;51.432;6.880;2024-02-21T07:46:30;1.52;;;1.05;;
12059;SDS011;6091;51.432;6.880;2024-02-21T07:48:57;3.10;;;1.33;;
12059;SDS011;6091;51.432;6.880;2024-02-21T07:51:27;3.88;;;1.58;;
12059;SDS011;6091;51.432;6.880;2024-02-21T07:53:54;3.03;;;1.10;;
12059;SDS011;6091;51.432;6.880;2024-02-21T07:56:22;0.88;;;0.88;;
12059;SDS011;6091;51.432;6.880;2024-02-21T07:58:51;1.67;;;1.00;;
12059;SDS011;6091;51.432;6.880;2024-02-21T08:01:21;1.48;;;0.95;;
12059;SDS011;6091;51.432;6.880;2024-02-21T08:03:48;3.47;;;1.38;;
12059;SDS011;6091;51.432;6.880;2024-02-21T08:06:16;1.23;;;1.10;;
12059;SDS011;6091;51.432;6.880;2024-02-21T08:08:43;3.38;;;1.10;;
12059;SDS011;6091;51.432;6.880;2024-02-21T08:11:10;1.75;;;0.98;;
12059;SDS011;6091;51.432;6.880;2024-02-21T08:13:38;2.92;;;0.90;;
12059;SDS011;6091;51.432;6.880;2024-02-21T08:16:05;2.88;;;1.10;;
12059;SDS011;6091;51.432;6.880;2024-02-21T08:18:33;1.33;;;1.02;;
12059;SDS011;6091;51.432;6.880;2024-02-21T08:21:04;1.98;;;0.98;;
12059;SDS011;6091;51.432;6.880;2024-02-21T08:23:31;3.08;;;1.20;;
12059;SDS011;6091;51.432;6.880;2024-02-21T08:25:59;1.67;;;1.00;;
12059;SDS011;6091;51.432;6.880;2024-02-21T08:28:26;2.38;;;1.20;;
12059;SDS011;6091;51.432;6.880;2024-02-21T08:30:57;1.23;;;1.10;;
12059;SDS011;6091;51.432;6.880;2024-02-21T08:33:24;2.13;;;1.02;;
12059;SDS011;6091;51.432;6.880;2024-02-21T08:35:53;2.38;;;1.10;;
12059;SDS011;6091;51.432;6.880;2024-02-21T08:38:20;2.58;;;1.20;;
12059;SDS011;6091;51.432;6.880;2024-02-21T08:40:47;2.05;;;1.10;;
12059;SDS011;6091;51.432;6.880;2024-02-21T08:43:15;4.43;;;1.27;;
12059;SDS011;6091;51.432;6.880;2024-02-21T08:45:42;3.72;;;1.20;;
12059;SDS011;6091;51.432;6.880;2024-02-21T08:48:09;1.83;;;1.10;;
12059;SDS011;6091;51.432;6.880;2024-02-21T08:50:37;2.20;;;1.38;;
12059;SDS011;6091;51.432;6.880;2024-02-21T08:53:05;2.53;;;1.13;;
12059;SDS011;6091;51.432;6.880;2024-02-21T08:55:33;4.35;;;1.52;;
12059;SDS011;6091;51.432;6.880;2024-02-21T08:58:02;2.63;;;1.40;;
12059;SDS011;6091;51.432;6.880;2024-02-21T09:00:31;3.08;;;1.02;;
12059;SDS011;6091;51.432;6.880;2024-02-21T09:02:58;2.83;;;1.40;;
12059;SDS011;6091;51.432;6.880;2024-02-21T09:05:25;3.80;;;1.70;;
12059;SDS011;6091;51.432;6.880;2024-02-21T09:07:52;1.92;;;1.60;;
12059;SDS011;6091;51.432;6.880;2024-02-21T09:10:20;2.88;;;1.23;;
12059;SDS011;6091;51.432;6.880;2024-02-21T09:12:48;1.88;;;1.20;;
12059;SDS011;6091;51.432;6.880;2024-02-21T09:15:15;2.40;;;1.30;;
12059;SDS011;6091;51.432;6.880;2024-02-21T09:17:42;1.98;;;1.33;;
12059;SDS011;6091;51.432;6.880;2024-02-21T09:20:09;1.77;;;1.00;;
12059;SDS011;6091;51.432;6.880;2024-02-21T09:22:38;1.35;;;1.00;;
12059;SDS011;6091;51.432;6.880;2024-02-21T09:25:06;2.95;;;1.08;;
12059;SDS011;6091;51.432;6.880;2024-02-21T09:27:34;1.27;;;0.98;;
12059;SDS011;6091;51.432;6.880;2024-02-21T09:30:01;1.27;;;1.08;;
12059;SDS011;6091;51.432;6.880;2024-02-21T09:32:31;1.10;;;1.00;;
12059;SDS011;6091;51.432;6.880;2024-02-21T09:35:02;2.10;;;1.45;;
12059;SDS011;6091;51.432;6.880;2024-02-21T09:37:33;3.70;;;1.70;;
12059;SDS011;6091;51.432;6.880;2024-02-21T09:40:00;3.80;;;1.42;;
12059;SDS011;6091;51.432;6.880;2024-02-21T09:42:37;6.70;;;2.05;;
12059;SDS011;6091;51.432;6.880;2024-02-21T09:50:27;2.95;;;1.67;;
12059;SDS011;6091;51.432;6.880;2024-02-21T09:52:58;5.72;;;1.67;;
12059;SDS011;6091;51.432;6.880;2024-02-21T09:55:35;3.42;;;1.20;;
12059;SDS011;6091;51.432;6.880;2024-02-21T09:58:09;4.45;;;2.10;;
12059;SDS011;6091;51.432;6.880;2024-02-21T10:00:38;5.63;;;1.73;;
12059;SDS011;6091;51.432;6.880;2024-02-21T10:03:05;4.50;;;1.35;;
12059;SDS011;6091;51.432;6.880;2024-02-21T10:05:36;3.38;;;1.40;;
12059;SDS011;6091;51.432;6.880;2024-02-21T10:08:06;2.90;;;1.42;;
12059;SDS011;6091;51.432;6.880;2024-02-21T10:10:40;2.38;;;1.38;;
12059;SDS011;6091;51.432;6.880;2024-02-21T10:13:27;2.88;;;1.50;;
12059;SDS011;6091;51.432;6.880;2024-02-21T10:16:00;4.22;;;1.50;;
12059;SDS011;6091;51.432;6.880;2024-02-21T10:18:32;2.63;;;1.13;;
12059;SDS011;6091;51.432;6.880;2024-02-21T10:21:02;3.20;;;1.35;;
12059;SDS011;6091;51.432;6.880;2024-02-21T10:23:43;2.55;;;1.40;;
12059;SDS011;6091;51.432;6.880;2024-02-21T10:26:16;4.72;;;1.30;;
12059;SDS011;6091;51.432;6.880;2024-02-21T10:28:45;4.15;;;1.50;;
12059;SDS011;6091;51.432;6.880;2024-02-21T10:31:21;3.80;;;1.63;;
12059;SDS011;6091;51.432;6.880;2024-02-21T10:33:55;6.05;;;1.42;;
12059;SDS011;6091;51.432;6.880;2024-02-21T10:36:32;2.50;;;1.60;;
12059;SDS011;6091;51.432;6.880;2024-02-21T10:39:00;4.18;;;1.02;;
12059;SDS011;6091;51.432;6.880;2024-02-21T10:41:28;2.93;;;1.80;;
12059;SDS011;6091;51.432;6.880;2024-02-21T10:43:58;4.22;;;1.60;;
12059;SDS011;6091;51.432;6.880;2024-02-21T10:46:32;2.67;;;1.30;;
12059;SDS011;6091;51.432;6.880;2024-02-21T10:51:54;1.52;;;1.15;;
12059;SDS011;6091;51.432;6.880;2024-02-21T10:55:03;2.05;;;1.20;;
12059;SDS011;6091;51.432;6.880;2024-02-21T10:57:38;3.90;;;1.55;;
12059;SDS011;6091;51.432;6.880;2024-02-21T11:00:06;1.67;;;1.23;;
12059;SDS011;6091;51.432;6.880;2024-02-21T11:02:38;3.22;;;1.30;;
12059;SDS011;6091;51.432;6.880;2024-02-21T11:05:07;3.15;;;1.63;;
12059;SDS011;6091;51.432;6.880;2024-02-21T11:07:36;1.75;;;1.30;;
12059;SDS011;6091;51.432;6.880;2024-02-21T11:10:04;2.17;;;1.27;;
12059;SDS011;6091;51.432;6.880;2024-02-21T11:12:34;1.83;;;1.23;;
12059;SDS011;6091;51.432;6.880;2024-02-21T11:15:07;2.80;;;1.20;;
12059;SDS011;6091;51.432;6.880;2024-02-21T11:17:36;2.67;;;1.20;;
12059;SDS011;6091;51.432;6.880;2024-02-21T11:20:15;2.72;;;1.73;;
12059;SDS011;6091;51.432;6.880;2024-02-21T11:22:43;2.15;;;1.08;;
12059;SDS011;6091;51.432;6.880;2024-02-21T11:25:11;3.25;;;1.40;;
12059;SDS011;6091;51.432;6.880;2024-02-21T11:27:38;3.25;;;1.20;;
12059;SDS011;6091;51.432;6.880;2024-02-21T11:30:12;4.03;;;1.35;;
12059;SDS011;6091;51.432;6.880;2024-02-21T11:32:42;2.83;;;0.95;;
12059;SDS011;6091;51.432;6.880;2024-02-21T11:35:10;3.22;;;1.00;;
12059;SDS011;6091;51.432;6.880;2024-02-21T11:37:47;4.30;;;1.20;;
12059;SDS011;6091;51.432;6.880;2024-02-21T11:40:14;2.05;;;0.95;;
12059;SDS011;6091;51.432;6.880;2024-02-21T11:42:41;1.95;;;1.33;;
12059;SDS011;6091;51.432;6.880;2024-02-21T11:45:09;2.45;;;1.00;;
12059;SDS011;6091;51.432;6.880;2024-02-21T11:47:36;2.47;;;1.33;;
12059;SDS011;6091;51.432;6.880;2024-02-21T11:50:09;2.03;;;1.02;;
12059;SDS011;6091;51.432;6.880;2024-02-21T11:52:40;3.13;;;1.42;;
12059;SDS011;6091;51.432;6.880;2024-02-21T11:55:07;1.98;;;1.00;;
12059;SDS011;6091;51.432;6.880;2024-02-21T11:57:37;1.92;;;1.10;;
12059;SDS011;6091;51.432;6.880;2024-02-21T12:00:14;1.48;;;1.02;;
12059;SDS011;6091;51.432;6.880;2024-02-21T12:02:50;3.30;;;1.05;;
12059;SDS011;6091;51.432;6.880;2024-02-21T12:05:18;2.13;;;1.10;;
12059;SDS011;6091;51.432;6.880;2024-02-21T12:07:46;3.75;;;1.65;;
12059;SDS011;6091;51.432;6.880;2024-02-21T12:10:14;1.85;;;1.17;;
12059;SDS011;6091;51.432;6.880;2024-02-21T12:12:41;1.77;;;1.10;;
12059;SDS011;6091;51.432;6.880;2024-02-21T12:15:09;2.50;;;1.23;;
12059;SDS011;6091;51.432;6.880;2024-02-21T12:17:37;1.27;;;0.98;;
12059;SDS011;6091;51.432;6.880;2024-02-21T12:20:06;2.17;;;1.33;;
12059;SDS011;6091;51.432;6.880;2024-02-21T12:22:41;2.42;;;1.48;;
12059;SDS011;6091;51.432;6.880;2024-02-21T12:25:15;3.03;;;1.05;;
12059;SDS011;6091;51.432;6.880;2024-02-21T12:27:49;1.90;;;1.13;;
12059;SDS011;6091;51.432;6.880;2024-02-21T12:30:16;3.35;;;1.10;;
12059;SDS011;6091;51.432;6.880;2024-02-21T12:32:45;1.42;;;1.00;;
12059;SDS011;6091;51.432;6.880;2024-02-21T12:35:14;3.03;;;1.08;;
12059;SDS011;6091;51.432;6.880;2024-02-21T12:37:44;1.40;;;1.20;;
12059;SDS011;6091;51.432;6.880;2024-02-21T12:40:12;2.97;;;1.30;;
12059;SDS011;6091;51.432;6.880;2024-02-21T12:42:40;4.32;;;1.10;;
12059;SDS011;6091;51.432;6.880;2024-02-21T12:45:08;2.65;;;1.27;;
12059;SDS011;6091;51.432;6.880;2024-02-21T12:47:36;2.53;;;1.00;;
12059;SDS011;6091;51.432;6.880;2024-02-21T12:50:07;1.58;;;1.15;;
12059;SDS011;6091;51.432;6.880;2024-02-21T12:52:35;2.38;;;1.00;;
12059;SDS011;6091;51.432;6.880;2024-02-21T12:55:02;1.30;;;1.00;;
12059;SDS011;6091;51.432;6.880;2024-02-21T12:57:30;1.92;;;1.00;;
12059;SDS011;6091;51.432;6.880;2024-02-21T13:00:00;3.45;;;1.13;;
12059;SDS011;6091;51.432;6.880;2024-02-21T13:02:27;1.67;;;1.05;;
12059;SDS011;6091;51.432;6.880;2024-02-21T13:04:55;2.08;;;0.90;;
12059;SDS011;6091;51.432;6.880;2024-02-21T13:07:22;3.17;;;1.10;;
12059;SDS011;6091;51.432;6.880;2024-02-21T13:09:50;2.42;;;1.17;;
12059;SDS011;6091;51.432;6.880;2024-02-21T13:12:18;1.60;;;1.13;;
12059;SDS011;6091;51.432;6.880;2024-02-21T13:14:45;1.50;;;1.00;;
12059;SDS011;6091;51.432;6.880;2024-02-21T13:17:12;2.22;;;1.13;;
12059;SDS011;6091;51.432;6.880;2024-02-21T13:19:41;8.85;;;1.60;;
12059;SDS011;6091;51.432;6.880;2024-02-21T13:22:09;6.63;;;1.70;;
12059;SDS011;6091;51.432;6.880;2024-02-21T13:24:37;4.05;;;1.30;;
12059;SDS011;6091;51.432;6.880;2024-02-21T13:27:05;2.83;;;1.30;;
12059;SDS011;6091;51.432;6.880;2024-02-21T13:29:33;4.45;;;1.30;;
12059;SDS011;6091;51.432;6.880;2024-02-21T13:32:01;2.38;;;1.23;;
12059;SDS011;6091;51.432;6.880;2024-02-21T13:34:30;2.33;;;1.20;;
12059;SDS011;6091;51.432;6.880;2024-02-21T13:36:57;2.25;;;1.30;;
12059;SDS011;6091;51.432;6.880;2024-02-21T13:39:25;2.10;;;1.23;;
12059;SDS011;6091;51.432;6.880;2024-02-21T13:41:53;5.32;;;1.10;;
12059;SDS011;6091;51.432;6.880;2024-02-21T13:44:20;2.47;;;1.42;;
12059;SDS011;6091;51.432;6.880;2024-02-21T13:46:47;1.73;;;1.38;;
12059;SDS011;6091;51.432;6.880;2024-02-21T13:49:15;1.40;;;1.00;;
12059;SDS011;6091;51.432;6.880;2024-02-21T13:51:42;1.73;;;1.13;;
12059;SDS011;6091;51.432;6.880;2024-02-21T13:54:11;2.92;;;1.23;;
12059;SDS011;6091;51.432;6.880;2024-02-21T13:56:41;3.20;;;1.20;;
12059;SDS011;6091;51.432;6.880;2024-02-21T13:59:15;1.75;;;1.00;;
12059;SDS011;6091;51.432;6.880;2024-02-21T14:01:43;1.88;;;1.15;;
12059;SDS011;6091;51.432;6.880;2024-02-21T14:04:10;1.17;;;1.00;;
12059;SDS011;6091;51.432;6.880;2024-02-21T14:06:38;2.35;;;1.00;;
12059;SDS011;6091;51.432;6.880;2024-02-21T14:09:10;1.30;;;1.00;;
12059;SDS011;6091;51.432;6.880;2024-02-21T14:11:38;1.50;;;1.10;;
12059;SDS011;6091;51.432;6.880;2024-02-21T14:14:10;1.73;;;0.90;;
12059;SDS011;6091;51.432;6.880;2024-02-21T14:16:39;2.38;;;1.00;;
12059;SDS011;6091;51.432;6.880;2024-02-21T14:19:07;1.73;;;1.00;;
12059;SDS011;6091;51.432;6.880;2024-02-21T14:21:35;1.50;;;0.95;;
12059;SDS011;6091;51.432;6.880;2024-02-21T14:24:04;1.48;;;1.00;;
12059;SDS011;6091;51.432;6.880;2024-02-21T14:26:35;2.08;;;0.93;;
12059;SDS011;6091;51.432;6.880;2024-02-21T14:29:04;3.42;;;1.10;;
12059;SDS011;6091;51.432;6.880;2024-02-21T14:31:31;1.30;;;0.75;;
12059;SDS011;6091;51.432;6.880;2024-02-21T14:33:59;2.42;;;1.00;;
12059;SDS011;6091;51.432;6.880;2024-02-21T14:36:27;4.50;;;1.02;;
12059;SDS011;6091;51.432;6.880;2024-02-21T14:38:55;1.67;;;0.80;;
12059;SDS011;6091;51.432;6.880;2024-02-21T14:41:22;3.33;;;1.15;;
12059;SDS011;6091;51.432;6.880;2024-02-21T14:43:51;1.17;;;0.90;;
12059;SDS011;6091;51.432;6.880;2024-02-21T14:46:18;1.17;;;1.00;;
12059;SDS011;6091;51.432;6.880;2024-02-21T14:48:46;1.25;;;0.88;;
12059;SDS011;6091;51.432;6.880;2024-02-21T14:51:13;1.17;;;1.00;;
12059;SDS011;6091;51.432;6.880;2024-02-21T14:53:40;2.35;;;1.00;;
12059;SDS011;6091;51.432;6.880;2024-02-21T14:56:16;2.65;;;1.00;;
12059;SDS011;6091;51.432;6.880;2024-02-21T14:58:48;3.45;;;1.23;;
12059;SDS011;6091;51.432;6.880;2024-02-21T15:01:20;2.92;;;1.40;;
12059;SDS011;6091;51.432;6.880;2024-02-21T15:03:48;2.55;;;1.10;;
12059;SDS011;6091;51.432;6.880;2024-02-21T15:06:16;1.67;;;1.08;;
12059;SDS011;6091;51.432;6.880;2024-02-21T15:08:43;3.28;;;1.45;;
12059;SDS011;6091;51.432;6.880;2024-02-21T15:11:10;3.30;;;1.38;;
12059;SDS011;6091;51.432;6.880;2024-02-21T15:13:38;2.55;;;1.50;;
12059;SDS011;6091;51.432;6.880;2024-02-21T15:16:08;2.95;;;1.48;;